Terminal Aerodrome Forecast
Issued by NWS Buffalo, NY

Home | Current Version | Previous Version | Text Only | Print | Product List | Glossary On
Versions: 1 2 3 4 5 6 7 8 9 10 11 12 13 14 15 16 17 18 19 20 21 22
000
FTUS41 KBUF 120532
TAFART
TAF
KART 120532Z 1206/1306 08005KT 1SM -SN OVC015
     FM121100 10007KT 1SM -SN OVC015
     FM121700 36008KT 1SM -SN OVC015
     FM122100 31012G20KT 1SM -SN OVC015
     FM130000 31011KT 1/2SM SN OVC007=

USA.gov is the U.S. government's official web portal to all federal, state and local government web resources and services.